Terminal Aerodrome Forecast
Issued by NWS

Home | Current Version | Previous Version | Text Only | Print | Product List | Glossary On
Versions: 1 2 3 4 5 6 7 8 9 10 11 12 13 14 15 16 17 18 19 20 21 22 23 24 25 26 27 28
595
FTUS44 KOHX 251129
TAFCKV
TAF
KCKV 251129Z 2512/2612 12003KT P6SM BKN250
     FM251700 21004KT P6SM VCTS BKN060CB BKN250
      TEMPO 2519/2523 4SM TSRA OVC060CB
     FM260400 20004KT P6SM VCSH BKN060 BKN250=

USA.gov is the U.S. government's official web portal to all federal, state and local government web resources and services.